createdAt,value
2022-07-28T00:02:15.164Z,2.43
2022-07-28T00:04:43.694Z,2.50
2022-07-28T00:07:11.268Z,2.40
2022-07-28T00:09:38.843Z,2.70
2022-07-28T00:12:08.149Z,2.50
2022-07-28T00:14:36.494Z,2.33
2022-07-28T00:17:04.066Z,2.40
2022-07-28T00:19:32.220Z,2.23
2022-07-28T00:21:59.806Z,2.40
2022-07-28T00:24:28.137Z,2.37
2022-07-28T00:26:56.126Z,2.40
2022-07-28T00:29:23.701Z,2.20
2022-07-28T00:31:51.386Z,2.53
2022-07-28T00:34:19.930Z,2.40
2022-07-28T00:36:47.505Z,2.40
2022-07-28T00:39:15.083Z,2.30
2022-07-28T00:41:43.726Z,2.40
2022-07-28T00:44:11.700Z,2.37
2022-07-28T00:46:38.917Z,1.97
2022-07-28T00:49:07.299Z,2.17
2022-07-28T00:51:34.811Z,2.20
2022-07-28T00:54:02.384Z,2.70
2022-07-28T00:56:30.756Z,2.07
2022-07-28T00:58:59.088Z,1.87
2022-07-28T01:01:26.679Z,1.50
2022-07-28T01:03:57.269Z,2.03
2022-07-28T01:06:43.305Z,1.80
2022-07-28T01:09:47.240Z,2.03
2022-07-28T01:12:23.549Z,1.60
2022-07-28T01:15:12.441Z,1.73
2022-07-28T01:17:42.426Z,1.63
2022-07-28T01:20:22.259Z,1.73
2022-07-28T01:23:27.062Z,1.90
2022-07-28T01:26:28.801Z,1.77
2022-07-28T01:29:14.375Z,1.60
2022-07-28T01:31:42.017Z,1.70
2022-07-28T01:34:15.959Z,1.60
2022-07-28T01:36:47.280Z,1.60
2022-07-28T01:39:14.864Z,1.53
2022-07-28T01:41:43.214Z,1.47
2022-07-28T01:44:11.095Z,1.40
2022-07-28T01:46:38.526Z,1.37
2022-07-28T01:49:06.037Z,1.40
2022-07-28T01:51:33.640Z,1.50
2022-07-28T01:54:01.233Z,1.27
2022-07-28T01:56:28.809Z,1.50
2022-07-28T01:58:57.169Z,1.50
2022-07-28T02:01:24.787Z,1.23
2022-07-28T02:03:53.095Z,1.30
2022-07-28T02:06:20.876Z,1.03
2022-07-28T02:08:48.449Z,1.30
2022-07-28T02:11:34.662Z,1.47
2022-07-28T02:14:02.236Z,1.33
2022-07-28T02:16:29.816Z,1.20
2022-07-28T02:18:57.424Z,1.40
2022-07-28T02:21:25.762Z,1.27
2022-07-28T02:23:53.340Z,1.23
2022-07-28T02:26:20.931Z,1.10
2022-07-28T02:28:48.516Z,1.15
2022-07-28T02:31:16.214Z,1.37
2022-07-28T02:33:58.853Z,1.00
2022-07-28T02:36:12.478Z,1.20
2022-07-28T02:38:40.832Z,1.17
2022-07-28T02:41:14.164Z,1.13
2022-07-28T02:43:49.003Z,1.20
2022-07-28T02:46:10.133Z,1.00
2022-07-28T02:48:38.550Z,1.10
2022-07-28T02:51:06.814Z,1.00
2022-07-28T02:53:34.399Z,1.07
2022-07-28T02:56:01.992Z,0.93
2022-07-28T02:58:29.614Z,1.60
2022-07-28T03:00:57.189Z,1.20
2022-07-28T03:03:25.561Z,0.80
2022-07-28T03:05:53.923Z,1.20
2022-07-28T03:08:21.478Z,0.93
2022-07-28T03:10:49.080Z,0.80
2022-07-28T03:13:16.674Z,0.80
2022-07-28T03:15:44.248Z,0.80
2022-07-28T03:18:11.883Z,1.00
2022-07-28T03:20:39.467Z,0.97
2022-07-28T03:23:07.040Z,1.23
2022-07-28T03:25:43.909Z,1.00
2022-07-28T03:28:11.492Z,0.90
2022-07-28T03:30:42.024Z,1.00
2022-07-28T03:33:09.585Z,0.80
2022-07-28T03:35:37.930Z,0.90
2022-07-28T03:38:08.189Z,0.93
2022-07-28T03:40:36.856Z,0.90
2022-07-28T03:43:05.102Z,1.17
2022-07-28T03:45:32.776Z,0.80
2022-07-28T03:48:00.361Z,0.90
2022-07-28T03:50:30.660Z,0.77
2022-07-28T03:52:58.251Z,0.73
2022-07-28T03:55:25.856Z,0.90
2022-07-28T03:57:53.440Z,0.80
2022-07-28T04:00:21.014Z,0.63
2022-07-28T04:02:48.649Z,0.80
2022-07-28T04:05:16.192Z,0.93
2022-07-28T04:07:43.769Z,0.90
2022-07-28T04:10:11.648Z,0.90
2022-07-28T04:12:45.235Z,0.70
2022-07-28T04:15:12.799Z,0.90
2022-07-28T04:17:40.462Z,0.93
2022-07-28T04:20:08.096Z,0.70
2022-07-28T04:22:35.680Z,0.70
2022-07-28T04:25:03.295Z,1.07
2022-07-28T04:27:31.635Z,0.83
2022-07-28T04:29:59.313Z,0.60
2022-07-28T04:32:26.911Z,0.83
2022-07-28T04:34:54.486Z,0.70
2022-07-28T04:37:22.054Z,0.80
2022-07-28T04:39:49.664Z,0.60
2022-07-28T04:42:20.803Z,0.67
2022-07-28T04:44:49.144Z,0.77
2022-07-28T04:47:16.757Z,0.90
2022-07-28T04:49:45.124Z,0.90
2022-07-28T04:52:13.462Z,0.80
2022-07-28T04:54:41.084Z,0.60
2022-07-28T04:57:10.276Z,0.90
2022-07-28T04:59:36.232Z,0.73
2022-07-28T05:02:03.846Z,0.90
2022-07-28T05:04:32.223Z,0.70
2022-07-28T05:06:59.783Z,0.70
2022-07-28T05:09:28.203Z,0.83
2022-07-28T05:11:55.777Z,0.70
2022-07-28T05:14:23.342Z,0.70
2022-07-28T05:16:51.923Z,0.90
2022-07-28T05:19:19.417Z,1.10
2022-07-28T05:21:47.757Z,0.80
2022-07-28T05:24:16.302Z,0.90
2022-07-28T05:26:43.408Z,0.63
2022-07-28T05:29:10.982Z,0.82
2022-07-28T05:31:39.424Z,0.77
2022-07-28T05:34:06.938Z,0.70
2022-07-28T05:36:34.512Z,0.83
2022-07-28T05:39:02.125Z,0.80
2022-07-28T05:41:29.699Z,0.60
2022-07-28T05:43:58.042Z,0.90
2022-07-28T05:46:25.665Z,0.70
2022-07-28T05:48:53.290Z,0.98
2022-07-28T05:51:20.824Z,0.90
2022-07-28T05:53:48.454Z,0.77
2022-07-28T05:56:16.020Z,0.87
2022-07-28T05:58:43.584Z,0.60
2022-07-28T06:01:11.290Z,0.97
2022-07-28T06:03:42.393Z,0.60
2022-07-28T06:06:16.035Z,0.97
2022-07-28T06:08:35.516Z,0.90
2022-07-28T06:11:03.868Z,0.90
2022-07-28T06:13:31.462Z,0.90
2022-07-28T06:15:59.889Z,1.00
2022-07-28T06:18:28.165Z,0.60
2022-07-28T06:20:55.749Z,0.70
2022-07-28T06:23:23.717Z,0.70
2022-07-28T06:25:51.291Z,0.60
2022-07-28T06:28:19.651Z,0.80
2022-07-28T06:30:47.247Z,0.80
2022-07-28T06:33:18.027Z,0.70
2022-07-28T06:35:50.781Z,1.30
2022-07-28T06:38:13.218Z,0.97
2022-07-28T06:40:40.803Z,0.70
2022-07-28T06:43:08.379Z,1.07
2022-07-28T06:45:35.980Z,0.60
2022-07-28T06:48:03.570Z,0.93
2022-07-28T06:50:31.129Z,0.90
2022-07-28T06:52:59.413Z,1.20
2022-07-28T06:55:26.307Z,1.00
2022-07-28T06:57:54.679Z,0.90
2022-07-28T07:00:22.252Z,0.97
2022-07-28T07:02:50.593Z,0.90
2022-07-28T07:05:18.168Z,0.90
2022-07-28T07:07:45.803Z,0.67
2022-07-28T07:10:13.383Z,0.80
2022-07-28T07:12:41.002Z,0.60
2022-07-28T07:15:08.751Z,0.80
2022-07-28T07:17:36.324Z,0.73
2022-07-28T07:20:03.899Z,1.37
2022-07-28T07:22:31.513Z,0.90
2022-07-28T07:25:00.107Z,0.90
2022-07-28T07:27:28.442Z,0.90
2022-07-28T07:29:56.078Z,1.07
2022-07-28T07:32:23.650Z,1.02
2022-07-28T07:34:51.234Z,1.20
2022-07-28T07:37:18.848Z,0.67
2022-07-28T07:39:46.462Z,0.80
2022-07-28T07:42:14.008Z,0.80
2022-07-28T07:44:41.620Z,1.20
2022-07-28T07:47:11.844Z,1.00
2022-07-28T07:49:45.170Z,0.90
2022-07-28T07:52:07.020Z,0.80
2022-07-28T07:54:35.362Z,0.70
2022-07-28T07:57:02.946Z,0.90
2022-07-28T07:59:30.600Z,0.80
2022-07-28T08:01:58.205Z,1.00
2022-07-28T08:04:25.756Z,1.00
2022-07-28T08:06:55.241Z,0.93
2022-07-28T08:09:22.475Z,1.10
2022-07-28T08:11:50.054Z,0.70
2022-07-28T08:14:18.762Z,0.97
2022-07-28T08:16:46.001Z,0.60
2022-07-28T08:19:14.371Z,0.93
2022-07-28T08:21:41.956Z,1.10
2022-07-28T08:24:09.551Z,0.80
2022-07-28T08:26:37.153Z,1.10
2022-07-28T08:29:05.545Z,0.80
2022-07-28T08:31:35.488Z,1.00
2022-07-28T08:34:01.481Z,0.80
2022-07-28T08:36:29.882Z,0.70
2022-07-28T08:38:57.466Z,0.80
2022-07-28T08:41:33.480Z,0.77
2022-07-28T08:43:55.125Z,0.90
2022-07-28T08:46:22.753Z,1.00
2022-07-28T08:48:50.380Z,0.80
2022-07-28T08:51:17.936Z,0.88
2022-07-28T08:53:45.520Z,0.90
2022-07-28T08:56:16.353Z,0.80
2022-07-28T08:58:43.985Z,0.70
2022-07-28T09:01:11.582Z,0.90
2022-07-28T09:03:40.041Z,0.90
2022-07-28T09:06:07.549Z,1.07
2022-07-28T09:08:35.120Z,1.03
2022-07-28T09:11:02.714Z,0.80
2022-07-28T09:13:30.327Z,1.00
2022-07-28T09:15:57.963Z,1.00
2022-07-28T09:18:25.485Z,0.80
2022-07-28T09:20:53.096Z,0.87
2022-07-28T09:23:43.466Z,1.30
2022-07-28T09:25:49.000Z,0.90
2022-07-28T09:28:16.613Z,1.08
2022-07-28T09:30:53.930Z,1.00
2022-07-28T09:33:41.157Z,1.23
2022-07-28T09:35:51.923Z,0.93
2022-07-28T09:38:19.498Z,1.20
2022-07-28T09:40:59.135Z,1.13
2022-07-28T09:43:38.642Z,1.00
2022-07-28T09:46:06.382Z,1.08
2022-07-28T09:48:34.708Z,1.17
2022-07-28T09:51:08.149Z,1.03
2022-07-28T09:53:35.762Z,1.10
2022-07-28T09:56:03.337Z,1.20
2022-07-28T09:58:30.920Z,1.00
2022-07-28T10:01:14.242Z,1.00
2022-07-28T10:03:41.781Z,0.80
2022-07-28T10:06:09.368Z,0.80
2022-07-28T10:08:49.828Z,1.37
2022-07-28T10:11:18.162Z,0.93
2022-07-28T10:13:54.529Z,1.00
2022-07-28T10:16:22.200Z,1.37
2022-07-28T10:18:49.699Z,1.07
2022-07-28T10:21:17.329Z,1.10
2022-07-28T10:23:50.604Z,1.20
2022-07-28T10:26:18.142Z,1.17
2022-07-28T10:28:48.473Z,1.40
2022-07-28T10:31:16.138Z,0.90
2022-07-28T10:33:46.290Z,1.60
2022-07-28T10:36:13.913Z,1.70
2022-07-28T10:38:41.496Z,1.13
2022-07-28T10:41:09.081Z,1.40
2022-07-28T10:43:37.495Z,1.55
2022-07-28T10:46:06.844Z,1.47
2022-07-28T10:48:32.669Z,1.33
2022-07-28T10:51:00.351Z,1.30
2022-07-28T10:53:51.891Z,1.40
2022-07-28T10:56:33.999Z,1.40
2022-07-28T10:59:04.924Z,1.40
2022-07-28T11:01:50.130Z,1.52
2022-07-28T11:04:08.634Z,1.50
2022-07-28T11:06:36.183Z,1.48
2022-07-28T11:09:16.738Z,1.60
2022-07-28T11:11:50.233Z,1.47
2022-07-28T11:14:24.520Z,1.90
2022-07-28T11:16:51.444Z,1.30
2022-07-28T11:19:40.740Z,1.63
2022-07-28T11:22:04.927Z,1.55
2022-07-28T11:25:20.637Z,1.63
2022-07-28T11:27:48.608Z,1.40
2022-07-28T11:30:19.825Z,1.60
2022-07-28T11:32:55.939Z,1.47
2022-07-28T11:35:26.345Z,1.10
2022-07-28T11:38:03.919Z,1.45
2022-07-28T11:40:40.644Z,1.73
2022-07-28T11:43:36.775Z,1.37
2022-07-28T11:46:02.839Z,1.23
2022-07-28T11:48:31.104Z,1.40
2022-07-28T11:51:04.676Z,1.50
2022-07-28T11:53:38.207Z,1.50
2022-07-28T11:56:07.119Z,1.53
2022-07-28T11:58:34.781Z,1.40
2022-07-28T12:01:17.427Z,1.40
2022-07-28T12:03:50.246Z,1.20
2022-07-28T12:06:10.864Z,1.40
2022-07-28T12:09:02.748Z,1.60
2022-07-28T12:11:42.032Z,1.50
2022-07-28T12:14:09.643Z,1.70
2022-07-28T12:16:37.299Z,1.30
2022-07-28T12:19:04.811Z,1.53
2022-07-28T12:21:50.270Z,1.60
2022-07-28T12:24:17.939Z,1.50
2022-07-28T12:26:48.929Z,1.55
2022-07-28T12:29:15.450Z,1.50
2022-07-28T12:31:55.101Z,1.63
2022-07-28T12:34:22.659Z,1.60
2022-07-28T12:36:50.275Z,1.67
2022-07-28T12:39:17.883Z,1.83
2022-07-28T12:41:45.412Z,1.87
2022-07-28T12:44:14.152Z,1.60
2022-07-28T12:46:41.338Z,1.43
2022-07-28T12:49:09.045Z,1.50
2022-07-28T12:51:39.657Z,1.80
2022-07-28T12:54:07.999Z,1.43
2022-07-28T12:56:44.907Z,1.70
2022-07-28T12:59:16.045Z,1.77
2022-07-28T13:01:50.345Z,1.40
2022-07-28T13:04:18.300Z,1.73
2022-07-28T13:06:45.445Z,1.53
2022-07-28T13:09:15.027Z,1.60
2022-07-28T13:11:46.078Z,1.47
2022-07-28T13:14:08.580Z,1.80
2022-07-28T13:16:37.099Z,1.80
2022-07-28T13:19:04.716Z,1.97
2022-07-28T13:21:40.980Z,1.80
2022-07-28T13:24:09.363Z,1.20
2022-07-28T13:26:37.704Z,2.43
2022-07-28T13:29:12.831Z,1.80
2022-07-28T13:31:33.718Z,1.80
2022-07-28T13:34:05.025Z,1.80
2022-07-28T13:36:33.377Z,1.80
2022-07-28T13:39:01.002Z,1.70
2022-07-28T13:41:28.594Z,1.77
2022-07-28T13:43:56.248Z,1.70
2022-07-28T13:46:23.938Z,1.98
2022-07-28T13:48:57.837Z,2.03
2022-07-28T13:51:19.068Z,1.90
2022-07-28T13:53:46.702Z,1.73
2022-07-28T13:56:14.295Z,1.40
2022-07-28T13:58:41.948Z,1.60
2022-07-28T14:01:12.533Z,1.80
2022-07-28T14:03:55.903Z,1.93
2022-07-28T14:06:08.450Z,1.70
2022-07-28T14:08:37.699Z,1.57
2022-07-28T14:11:06.111Z,1.40
2022-07-28T14:13:38.144Z,1.87
2022-07-28T14:16:02.627Z,1.87
2022-07-28T14:18:29.665Z,2.10
2022-07-28T14:20:57.233Z,1.90
2022-07-28T14:23:25.625Z,1.83
2022-07-28T14:26:07.295Z,1.70
2022-07-28T14:28:21.555Z,2.28
2022-07-28T14:30:49.973Z,1.80
2022-07-28T14:33:18.275Z,2.23
2022-07-28T14:35:45.854Z,1.90
2022-07-28T14:38:51.011Z,1.90
2022-07-28T14:40:41.045Z,1.50
2022-07-28T14:43:08.620Z,1.80
2022-07-28T14:45:50.595Z,1.80
2022-07-28T14:48:03.813Z,1.97
2022-07-28T14:50:31.417Z,2.03
2022-07-28T14:52:59.040Z,2.13
2022-07-28T14:55:26.615Z,1.93
2022-07-28T14:57:55.047Z,1.50
2022-07-28T15:00:21.806Z,1.90
2022-07-28T15:02:49.471Z,1.87
2022-07-28T15:05:16.970Z,1.60
2022-07-28T15:07:44.564Z,1.63
2022-07-28T15:10:12.140Z,1.73
2022-07-28T15:12:39.712Z,1.90
2022-07-28T15:15:08.299Z,1.80
2022-07-28T15:17:35.874Z,1.85
2022-07-28T15:20:03.450Z,1.70
2022-07-28T15:22:31.087Z,1.80
2022-07-28T15:24:58.675Z,2.00
2022-07-28T15:27:26.240Z,1.67
2022-07-28T15:29:54.405Z,2.40
2022-07-28T15:32:27.191Z,2.00
2022-07-28T15:34:49.592Z,1.62
2022-07-28T15:37:17.944Z,2.10
2022-07-28T15:39:45.559Z,2.00
2022-07-28T15:42:13.140Z,1.80
2022-07-28T15:44:40.746Z,1.95
2022-07-28T15:47:08.368Z,2.20
2022-07-28T15:49:35.918Z,1.97
2022-07-28T15:52:03.527Z,2.10
2022-07-28T15:54:31.111Z,1.80
2022-07-28T15:56:58.686Z,2.23
2022-07-28T15:59:48.828Z,2.20
2022-07-28T16:01:54.861Z,1.80
2022-07-28T16:04:23.179Z,1.87
2022-07-28T16:07:08.812Z,1.80
2022-07-28T16:09:45.407Z,2.60
2022-07-28T16:12:03.972Z,1.80
2022-07-28T16:14:31.615Z,2.00
2022-07-28T16:16:59.188Z,1.93
2022-07-28T16:19:47.742Z,2.30
2022-07-28T16:21:54.405Z,2.00
2022-07-28T16:24:21.979Z,2.25
2022-07-28T16:26:49.565Z,1.97
2022-07-28T16:29:17.187Z,2.20
2022-07-28T16:31:45.415Z,2.00
2022-07-28T16:34:12.471Z,2.00
2022-07-28T16:36:42.667Z,1.87
2022-07-28T16:39:10.244Z,1.90
2022-07-28T16:41:46.909Z,2.37
2022-07-28T16:44:07.079Z,2.27
2022-07-28T16:46:34.700Z,1.80
2022-07-28T16:49:03.092Z,2.22
2022-07-28T16:51:30.885Z,2.40
2022-07-28T16:53:58.458Z,1.93
2022-07-28T16:56:26.034Z,2.10
2022-07-28T16:58:54.414Z,2.00
2022-07-28T17:01:22.052Z,1.77
2022-07-28T17:03:49.561Z,2.47
2022-07-28T17:06:17.495Z,2.10
2022-07-28T17:08:45.045Z,2.00
2022-07-28T17:11:13.386Z,2.30
2022-07-28T17:13:45.192Z,2.23
2022-07-28T17:16:09.367Z,2.10
2022-07-28T17:18:36.927Z,2.10
2022-07-28T17:21:05.583Z,1.70
2022-07-28T17:23:34.722Z,2.30
2022-07-28T17:28:31.103Z,1.90
2022-07-28T17:30:58.738Z,2.28
2022-07-28T17:33:26.241Z,1.87
2022-07-28T17:35:55.038Z,2.00
2022-07-28T17:38:22.610Z,1.90
2022-07-28T17:40:50.185Z,1.90
2022-07-28T17:43:18.565Z,2.10
2022-07-28T17:45:46.925Z,2.00
2022-07-28T17:48:14.581Z,2.13
2022-07-28T17:50:42.552Z,2.10
2022-07-28T17:53:10.123Z,2.10
2022-07-28T17:56:00.423Z,1.80
2022-07-28T17:58:12.084Z,2.10
2022-07-28T18:00:45.123Z,1.80
2022-07-28T18:03:12.711Z,2.03
2022-07-28T18:05:40.320Z,1.73
2022-07-28T18:08:08.652Z,1.97
2022-07-28T18:10:36.228Z,1.93
2022-07-28T18:13:03.851Z,2.10
2022-07-28T18:15:31.469Z,2.05
2022-07-28T18:17:59.039Z,1.80
2022-07-28T18:20:27.527Z,2.20
2022-07-28T18:22:55.073Z,1.80
2022-07-28T18:25:23.519Z,2.00
2022-07-28T18:27:51.058Z,2.15
2022-07-28T18:30:18.641Z,2.13
2022-07-28T18:32:46.226Z,2.40
2022-07-28T18:35:14.911Z,1.70
2022-07-28T18:37:45.732Z,1.90
2022-07-28T18:40:11.046Z,1.87
2022-07-28T18:42:38.669Z,2.40
2022-07-28T18:45:06.381Z,2.20
2022-07-28T18:47:34.723Z,2.03
2022-07-28T18:50:02.338Z,2.33
2022-07-28T18:52:29.911Z,2.20
2022-07-28T18:54:57.485Z,2.10
2022-07-28T18:57:26.092Z,2.13
2022-07-28T18:59:53.677Z,2.07
2022-07-28T19:02:22.141Z,2.30
2022-07-28T19:04:49.703Z,1.70
2022-07-28T19:07:17.266Z,2.10
2022-07-28T19:09:44.849Z,2.30
2022-07-28T19:12:13.284Z,2.10
2022-07-28T19:14:40.805Z,1.90
2022-07-28T19:17:08.389Z,2.07
2022-07-28T19:19:38.454Z,2.13
2022-07-28T19:22:06.796Z,2.27
2022-07-28T19:24:34.370Z,1.90
2022-07-28T19:27:05.105Z,2.20
2022-07-28T19:29:32.689Z,2.58
2022-07-28T19:32:01.032Z,2.50
2022-07-28T19:34:28.645Z,2.10
2022-07-28T19:36:57.423Z,1.97
2022-07-28T19:39:23.793Z,2.50
2022-07-28T19:41:51.417Z,1.97
2022-07-28T19:44:19.185Z,1.87
2022-07-28T19:46:46.548Z,1.93
2022-07-28T19:49:14.272Z,2.53
2022-07-28T19:51:41.772Z,2.40
2022-07-28T19:54:09.346Z,2.00
2022-07-28T19:56:36.962Z,2.13
2022-07-28T19:59:05.291Z,2.20
2022-07-28T20:01:32.910Z,2.00
2022-07-28T20:04:05.008Z,2.13
2022-07-28T20:06:28.084Z,1.77
2022-07-28T20:08:55.666Z,1.97
2022-07-28T20:11:23.283Z,2.13
2022-07-28T20:13:50.851Z,2.20
2022-07-28T20:16:18.491Z,1.87
2022-07-28T20:18:46.033Z,2.07
2022-07-28T20:21:13.606Z,2.30
2022-07-28T20:23:41.215Z,2.17
2022-07-28T20:26:08.786Z,2.03
2022-07-28T20:28:36.358Z,2.20
2022-07-28T20:31:04.725Z,1.80
2022-07-28T20:33:32.314Z,1.97
2022-07-28T20:35:59.888Z,2.20
2022-07-28T20:38:27.462Z,2.00
2022-07-28T20:40:55.983Z,1.93
2022-07-28T20:43:23.555Z,1.80
2022-07-28T20:45:51.950Z,2.00
2022-07-28T20:48:19.521Z,1.93
2022-07-28T20:50:47.097Z,2.03
2022-07-28T20:53:14.670Z,2.33
2022-07-28T20:55:42.303Z,2.40
2022-07-28T20:58:09.869Z,2.00
2022-07-28T21:00:40.404Z,2.10
2022-07-28T21:03:08.023Z,1.93
2022-07-28T21:05:36.360Z,2.33
2022-07-28T21:08:06.384Z,1.77
2022-07-28T21:10:31.549Z,2.05
2022-07-28T21:12:59.122Z,2.40
2022-07-28T21:15:26.697Z,1.90
2022-07-28T21:17:54.310Z,2.17
2022-07-28T21:20:22.652Z,1.83
2022-07-28T21:22:50.225Z,1.93
2022-07-28T21:25:18.990Z,4.27
2022-07-28T21:28:04.828Z,2.93
2022-07-28T21:30:33.577Z,2.10
2022-07-28T21:33:01.169Z,2.60
2022-07-28T21:35:29.502Z,2.47
2022-07-28T21:37:57.115Z,1.53
2022-07-28T21:40:24.690Z,2.08
2022-07-28T21:42:52.268Z,2.07
2022-07-28T21:45:19.877Z,1.90
2022-07-28T21:47:48.219Z,1.60
2022-07-28T21:50:15.793Z,2.13
2022-07-28T21:52:43.398Z,1.80
2022-07-28T21:55:10.971Z,1.90
2022-07-28T21:57:38.546Z,1.83
2022-07-28T22:00:06.339Z,1.70
2022-07-28T22:02:33.912Z,1.70
2022-07-28T22:05:02.307Z,2.17
2022-07-28T22:07:29.867Z,1.77
2022-07-28T22:09:57.441Z,1.80
2022-07-28T22:12:25.026Z,1.67
2022-07-28T22:14:52.649Z,1.70
2022-07-28T22:17:20.991Z,1.70
2022-07-28T22:19:48.655Z,1.77
2022-07-28T22:22:17.235Z,1.80
2022-07-28T22:24:44.807Z,2.07
2022-07-28T22:27:12.380Z,2.00
2022-07-28T22:29:45.345Z,1.97
2022-07-28T22:32:08.411Z,1.80
2022-07-28T22:34:35.929Z,1.40
2022-07-28T22:37:03.534Z,1.57
2022-07-28T22:39:31.885Z,1.70
2022-07-28T22:41:59.461Z,1.80
2022-07-28T22:44:27.074Z,1.80
2022-07-28T22:46:54.637Z,1.90
2022-07-28T22:49:22.251Z,1.70
2022-07-28T22:51:49.806Z,1.97
2022-07-28T22:54:18.393Z,2.03
2022-07-28T22:56:45.722Z,1.60
2022-07-28T22:59:14.442Z,1.77
2022-07-28T23:01:40.959Z,1.80
2022-07-28T23:04:09.303Z,1.73
2022-07-28T23:06:37.811Z,1.57
2022-07-28T23:09:05.385Z,1.80
2022-07-28T23:11:33.728Z,1.70
2022-07-28T23:14:01.320Z,1.73
2022-07-28T23:16:29.730Z,1.80
2022-07-28T23:18:57.248Z,1.37
2022-07-28T23:21:24.840Z,1.73
2022-07-28T23:23:52.416Z,1.30
2022-07-28T23:26:19.989Z,1.97
2022-07-28T23:28:47.574Z,1.80
2022-07-28T23:31:15.196Z,1.50
2022-07-28T23:33:55.752Z,1.47
2022-07-28T23:36:16.876Z,1.60
2022-07-28T23:38:39.439Z,1.80
2022-07-28T23:41:12.927Z,1.97
2022-07-28T23:43:40.521Z,2.07
2022-07-28T23:46:08.095Z,2.10
2022-07-28T23:48:36.471Z,2.30
2022-07-28T23:51:04.034Z,2.10
2022-07-28T23:53:32.374Z,2.20
2022-07-28T23:55:59.947Z,1.90
2022-07-28T23:58:27.552Z,2.07
